Time;durP1;ratioP1;P1;durP2;ratioP2;P2;SDS_P1;SDS_P2;PMS_P1;PMS_P2;Temp;Humidity;BMP_temperature;BMP_pressure;BME280_temperature;BME280_humidity;BME280_pressure;Samples;Min_cycle;Max_cycle;Signal;HPM_P1;HPM_P2
2023/02/08 00:01:21;;;;;;;11.73;7.03;;;;;;;1.09;39.07;103497.97;4932047;28;20507;-76
2023/02/08 00:03:49;;;;;;;11.73;7.47;;;;;;;1.07;39.22;103495.28;4928844;28;20043;-76
2023/02/08 00:06:18;;;;;;;9.95;6.65;;;;;;;1.07;39.35;103489.88;4927935;29;20048;-76
2023/02/08 00:08:46;;;;;;;11.55;7.30;;;;;;;1.06;39.27;103490.78;4927050;28;20495;-76
2023/02/08 00:11:15;;;;;;;10.95;7.10;;;;;;;1.06;39.25;103492.59;4941157;29;20073;-76
2023/02/08 00:13:43;;;;;;;11.32;6.72;;;;;;;1.05;39.13;103490.78;4933810;28;20066;-77
2023/02/08 00:16:13;;;;;;;9.68;6.30;;;;;;;1.05;39.37;103494.38;4934813;28;20047;-76
2023/02/08 00:18:41;;;;;;;10.43;6.68;;;;;;;1.04;39.24;103484.50;4928298;28;20156;-76
2023/02/08 00:21:10;;;;;;;10.18;6.50;;;;;;;1.04;39.44;103491.69;4933277;29;20440;-76
2023/02/08 00:23:38;;;;;;;9.05;6.10;;;;;;;1.03;39.16;103484.50;4932748;28;20478;-76
2023/02/08 00:26:07;;;;;;;10.20;6.25;;;;;;;1.03;39.03;103490.78;4923089;29;20503;-76
2023/02/08 00:28:37;;;;;;;10.50;6.38;;;;;;;1.03;39.30;103490.78;4921594;28;20506;-77
2023/02/08 00:31:05;;;;;;;10.50;6.45;;;;;;;1.03;39.36;103487.19;4936788;29;20048;-76
2023/02/08 00:33:34;;;;;;;10.60;6.05;;;;;;;1.02;39.31;103483.59;4908854;28;20056;-76
2023/02/08 00:36:04;;;;;;;10.85;6.30;;;;;;;1.01;39.19;103476.41;4915595;29;20406;-76
2023/02/08 00:38:32;;;;;;;10.35;6.00;;;;;;;0.99;39.17;103474.66;4930631;28;20052;-76
2023/02/08 00:41:00;;;;;;;9.68;6.25;;;;;;;0.98;39.10;103467.47;4933106;28;20035;-76
2023/02/08 00:43:28;;;;;;;10.90;6.22;;;;;;;0.96;39.33;103467.47;4932703;28;20052;-76
2023/02/08 00:46:00;;;;;;;9.80;6.35;;;;;;;0.97;39.21;103471.97;4917843;29;20120;-76
2023/02/08 00:48:29;;;;;;;10.57;6.57;;;;;;;0.94;39.12;103468.38;4923387;28;20392;-76
2023/02/08 00:50:58;;;;;;;10.05;6.20;;;;;;;0.94;39.39;103466.56;4924421;28;20044;-76
2023/02/08 00:53:28;;;;;;;10.60;6.75;;;;;;;0.93;39.08;103462.09;4926396;28;20051;-76
2023/02/08 00:55:56;;;;;;;11.27;6.47;;;;;;;0.91;39.18;103466.63;4923216;29;20122;-76
2023/02/08 00:58:28;;;;;;;10.90;6.53;;;;;;;0.88;39.24;103472.03;4923603;29;20067;-76
2023/02/08 01:00:55;;;;;;;12.07;6.78;;;;;;;0.88;39.55;103472.03;4916214;29;20048;-76
2023/02/08 01:03:25;;;;;;;11.10;6.78;;;;;;;0.87;39.24;103469.28;4922195;28;20048;-76
2023/02/08 01:05:53;;;;;;;10.90;6.53;;;;;;;0.86;39.43;103475.59;4919247;29;20075;-76
2023/02/08 01:08:21;;;;;;;10.35;6.72;;;;;;;0.84;39.38;103470.22;4914741;28;20486;-76
2023/02/08 01:10:49;;;;;;;10.75;6.63;;;;;;;0.83;39.46;103465.72;4924558;29;20052;-76
2023/02/08 01:13:17;;;;;;;10.45;6.30;;;;;;;0.81;39.46;103467.53;4909662;28;20050;-76
2023/02/08 01:15:45;;;;;;;11.57;6.63;;;;;;;0.80;39.82;103463.03;4917929;28;20044;-76
2023/02/08 01:18:13;;;;;;;13.80;7.38;;;;;;;0.79;39.47;103460.34;4918968;28;20048;-76
2023/02/08 01:20:43;;;;;;;12.00;7.15;;;;;;;0.79;39.38;103465.75;4916143;28;20044;-76
2023/02/08 01:23:11;;;;;;;11.98;7.20;;;;;;;0.77;39.43;103464.84;4909619;29;20083;-76
2023/02/08 01:25:39;;;;;;;12.80;7.15;;;;;;;0.76;39.46;103468.47;4913047;28;20044;-76
2023/02/08 01:28:07;;;;;;;13.82;6.85;;;;;;;0.75;39.41;103464.88;4924967;29;20118;-77
2023/02/08 01:30:35;;;;;;;9.85;6.82;;;;;;;0.75;39.38;103467.56;4917284;28;20078;-77
2023/02/08 01:33:03;;;;;;;11.20;6.80;;;;;;;0.73;39.43;103453.19;4925455;28;20040;-77
2023/02/08 01:35:31;;;;;;;12.02;6.82;;;;;;;0.72;39.44;103468.47;4923720;28;20074;-76
2023/02/08 01:38:00;;;;;;;10.85;6.50;;;;;;;0.72;39.42;103459.50;4914597;28;20059;-77
2023/02/08 01:40:28;;;;;;;10.07;6.75;;;;;;;0.70;39.42;103470.28;4921682;28;20513;-77
2023/02/08 01:42:56;;;;;;;10.80;6.15;;;;;;;0.68;39.59;103461.28;4911326;28;20052;-77
2023/02/08 01:45:28;;;;;;;13.30;6.40;;;;;;;0.69;39.43;103463.09;4908824;28;20434;-77
2023/02/08 01:48:17;;;;;;;12.50;7.10;;;;;;;0.67;39.14;103464.91;4918244;29;20052;-77
2023/02/08 01:50:52;;;;;;;10.18;6.65;;;;;;;0.66;39.38;103465.81;4928171;28;20048;-76
2023/02/08 01:53:22;;;;;;;12.55;7.07;;;;;;;0.65;39.46;103458.63;4921671;28;20048;-77
2023/02/08 01:55:54;;;;;;;10.85;6.60;;;;;;;0.65;39.47;103452.34;4908138;28;20109;-76
2023/02/08 01:58:27;;;;;;;10.15;6.47;;;;;;;0.63;39.53;103463.13;4907292;28;20052;-77
2023/02/08 02:00:55;;;;;;;10.80;6.47;;;;;;;0.59;39.21;103447.00;4923305;28;20048;-77
2023/02/08 02:03:24;;;;;;;11.27;6.30;;;;;;;0.60;39.36;103457.75;4910268;29;20529;-77
2023/02/08 02:05:57;;;;;;;11.43;7.07;;;;;;;0.59;39.33;103449.69;4907973;28;20067;-77
2023/02/08 02:08:28;;;;;;;11.23;6.40;;;;;;;0.56;39.39;103444.31;4923930;28;20158;-77
2023/02/08 02:10:56;;;;;;;11.02;6.80;;;;;;;0.54;39.44;103447.00;4922587;29;20440;-77
2023/02/08 02:13:27;;;;;;;10.75;6.63;;;;;;;0.54;39.35;103447.00;4926946;28;20437;-76
2023/02/08 02:15:56;;;;;;;10.00;6.40;;;;;;;0.52;39.62;103437.16;4922114;28;20070;-77
2023/02/08 02:18:27;;;;;;;10.95;6.55;;;;;;;0.51;39.50;103438.06;4926060;28;20536;-77
2023/02/08 02:21:09;;;;;;;10.73;6.90;;;;;;;0.49;39.52;103434.47;4928117;28;20054;-77
2023/02/08 02:24:27;;;;;;;10.20;6.43;;;;;;;0.42;39.83;103438.09;4921780;28;20051;-77
2023/02/08 02:27:22;;;;;;;11.57;6.20;;;;;;;0.39;39.88;103441.69;4905995;28;20044;-77
2023/02/08 02:30:29;;;;;;;10.63;6.07;;;;;;;0.34;39.84;103444.41;4910666;28;20087;-77
2023/02/08 02:33:18;;;;;;;10.35;5.70;;;;;;;0.33;39.82;103448.00;4927611;28;20044;-77
2023/02/08 02:35:56;;;;;;;10.88;6.35;;;;;;;0.30;39.80;103444.41;4914290;28;20125;-77
2023/02/08 02:38:40;;;;;;;9.95;5.95;;;;;;;0.28;39.71;103439.00;4922029;28;20072;-77
2023/02/08 02:43:40;;;;;;;10.45;6.38;;;;;;;0.25;39.70;103438.16;4912623;29;20044;-77
2023/02/08 02:44:12;;;;;;;10.07;5.85;;;;;;;0.22;40.12;103433.66;4989596;23;20073;-75
2023/02/08 02:46:46;;;;;;;8.55;5.70;;;;;;;0.21;40.12;103434.56;5037890;28;20037;-75
2023/02/08 02:49:18;;;;;;;;;;;;;;;0.01;40.15;103436.44;5001596;28;20468;-76
2023/02/08 02:51:51;;;;;;;8.50;4.82;;;;;;;0.17;40.01;103419.34;4995310;28;20362;-76
2023/02/08 02:54:22;;;;;;;11.20;5.50;;;;;;;0.20;40.25;103426.47;4995526;28;20137;-76
2023/02/08 02:56:54;;;;;;;10.00;5.88;;;;;;;0.20;39.88;103427.38;4993564;28;20034;-76
2023/02/08 02:59:23;;;;;;;9.77;6.05;;;;;;;0.18;39.93;103422.91;4992374;28;20049;-76
2023/02/08 03:01:54;;;;;;;9.45;5.72;;;;;;;0.21;39.97;103417.50;4993418;28;20049;-76
2023/02/08 03:04:53;;;;;;;10.38;6.22;;;;;;;0.21;39.85;103412.13;4992326;28;20050;-75
2023/02/08 03:07:42;;;;;;;10.40;5.88;;;;;;;0.20;39.94;103415.72;5010428;28;20108;-76
2023/02/08 03:10:26;;;;;;;10.65;6.32;;;;;;;0.19;39.99;103419.34;5013237;28;20346;-75
2023/02/08 03:13:01;;;;;;;9.52;6.20;;;;;;;0.17;39.99;103415.75;5018850;28;20589;-76
2023/02/08 03:15:38;;;;;;;9.13;6.38;;;;;;;0.15;39.94;103421.13;4997743;28;20060;-76
2023/02/08 03:18:20;;;;;;;10.13;6.32;;;;;;;0.15;39.73;103417.53;5002786;28;20043;-75
2023/02/08 03:20:54;;;;;;;11.82;6.30;;;;;;;0.13;39.84;103419.31;5002954;28;20089;-76
2023/02/08 03:23:27;;;;;;;10.32;6.65;;;;;;;0.12;39.87;103417.53;5003292;28;20390;-76
2023/02/08 03:26:04;;;;;;;9.30;5.65;;;;;;;0.13;39.55;103416.63;5002941;28;20079;-76
2023/02/08 03:28:40;;;;;;;10.60;6.00;;;;;;;0.10;39.70;103414.88;5010927;28;20124;-76
2023/02/08 03:31:14;;;;;;;10.18;5.95;;;;;;;0.09;39.97;103414.88;5003541;28;20046;-75
2023/02/08 03:33:49;;;;;;;9.32;6.00;;;;;;;0.10;39.81;103419.34;5001234;28;20057;-75
2023/02/08 03:36:24;;;;;;;9.38;6.15;;;;;;;0.08;39.62;103424.75;5002266;28;20041;-75
2023/02/08 03:38:54;;;;;;;10.95;5.90;;;;;;;0.07;39.76;103431.03;5002818;28;20411;-75
2023/02/08 03:41:34;;;;;;;7.82;5.18;;;;;;;0.08;39.62;103429.22;5011558;28;20046;-75
2023/02/08 03:44:09;;;;;;;8.07;5.93;;;;;;;0.08;39.65;103427.44;5011874;28;20463;-75
2023/02/08 03:46:41;;;;;;;8.00;5.30;;;;;;;0.08;39.98;103430.13;4994983;28;20088;-75
2023/02/08 03:49:15;;;;;;;9.07;5.78;;;;;;;0.09;39.80;103431.03;4995287;28;20133;-75
2023/02/08 03:51:46;;;;;;;8.85;5.60;;;;;;;0.09;40.01;103429.22;5000967;28;20046;-76
2023/02/08 03:54:19;;;;;;;9.73;5.75;;;;;;;0.11;40.03;103434.59;4997907;28;20046;-75
2023/02/08 03:56:52;;;;;;;10.05;5.88;;;;;;;0.12;40.03;103433.69;5009273;28;20062;-76
2023/02/08 03:59:24;;;;;;;8.30;5.45;;;;;;;0.13;40.13;103432.78;5009769;28;20038;-76
2023/02/08 04:01:57;;;;;;;9.88;5.82;;;;;;;0.13;40.36;103433.69;4993445;28;20540;-76
2023/02/08 04:04:29;;;;;;;8.65;5.60;;;;;;;0.14;40.17;103438.19;4991622;28;20053;-75
2023/02/08 04:06:58;;;;;;;8.18;5.28;;;;;;;0.18;40.23;103428.31;5013748;28;20141;-76
2023/02/08 04:09:26;;;;;;;9.95;5.80;;;;;;;0.16;40.02;103436.38;5001204;28;20046;-75
2023/02/08 04:11:54;;;;;;;9.35;5.70;;;;;;;0.19;39.98;103433.66;5023527;28;20148;-76
2023/02/08 04:14:22;;;;;;;9.50;5.70;;;;;;;0.18;39.98;103429.19;5007284;28;20317;-76
2023/02/08 04:16:49;;;;;;;8.60;5.35;;;;;;;0.20;39.76;103431.88;5007637;28;20034;-75
2023/02/08 04:19:17;;;;;;;8.10;5.57;;;;;;;0.20;39.76;103429.16;5007792;28;20068;-75
2023/02/08 04:21:45;;;;;;;8.52;5.35;;;;;;;0.20;39.77;103426.47;4991947;28;20057;-75
2023/02/08 04:24:14;;;;;;;10.18;5.70;;;;;;;0.22;40.03;103439.06;4989570;28;20448;-76
2023/02/08 04:26:42;;;;;;;8.50;5.60;;;;;;;0.21;40.03;103430.97;5001829;28;20054;-75
2023/02/08 04:29:10;;;;;;;7.93;5.18;;;;;;;0.22;40.04;103435.47;5002746;28;20112;-76
2023/02/08 04:31:37;;;;;;;9.13;5.40;;;;;;;0.21;39.75;103431.88;4990515;28;20394;-77
2023/02/08 04:34:05;;;;;;;8.27;5.22;;;;;;;0.21;39.91;103439.94;4988862;28;20125;-76
2023/02/08 04:36:33;;;;;;;9.55;5.82;;;;;;;0.21;40.09;103433.66;4993860;28;20050;-77
2023/02/08 04:39:01;;;;;;;9.57;5.65;;;;;;;0.20;39.98;103439.94;5004010;28;20504;-76
2023/02/08 04:41:30;;;;;;;8.85;5.75;;;;;;;0.20;39.88;103438.16;4997869;28;20054;-76
2023/02/08 04:43:58;;;;;;;10.32;5.85;;;;;;;0.18;40.08;103442.66;4994061;28;20061;-76
2023/02/08 04:46:26;;;;;;;9.40;5.88;;;;;;;0.18;39.71;103444.47;4990500;28;20078;-76
2023/02/08 04:48:54;;;;;;;8.90;5.80;;;;;;;0.18;40.12;103444.47;5007892;28;20045;-77
2023/02/08 04:51:23;;;;;;;8.90;5.38;;;;;;;0.15;40.03;103436.38;4999444;28;20042;-76
2023/02/08 04:53:51;;;;;;;9.55;6.03;;;;;;;0.14;40.12;103445.34;5002665;28;20416;-77
2023/02/08 04:56:19;;;;;;;8.85;5.40;;;;;;;0.13;39.82;103441.75;5016402;28;20046;-76
2023/02/08 04:58:48;;;;;;;11.90;5.40;;;;;;;0.12;39.90;103439.97;5016325;28;20041;-76
2023/02/08 05:01:16;;;;;;;9.50;5.40;;;;;;;0.10;39.92;103435.50;5003676;28;20042;-76
2023/02/08 05:03:44;;;;;;;12.63;5.47;;;;;;;0.10;39.96;103432.81;4989468;28;20045;-76
2023/02/08 05:06:12;;;;;;;10.90;5.60;;;;;;;0.09;39.98;103433.72;5011182;28;20050;-76
2023/02/08 05:08:40;;;;;;;8.80;5.75;;;;;;;0.08;39.84;103427.44;5010884;28;20042;-76
2023/02/08 05:11:07;;;;;;;8.43;5.25;;;;;;;0.07;39.84;103440.91;5000858;28;20042;-75
2023/02/08 05:13:35;;;;;;;9.70;5.32;;;;;;;0.07;40.07;103436.41;4995455;28;20046;-76
2023/02/08 05:16:05;;;;;;;10.00;5.57;;;;;;;0.08;39.89;103440.91;5004047;28;20073;-76
2023/02/08 05:18:32;;;;;;;9.50;5.07;;;;;;;0.07;39.84;103440.91;5009461;28;20388;-75
2023/02/08 05:21:02;;;;;;;7.93;4.65;;;;;;;0.07;39.93;103435.50;5006097;28;20108;-76
2023/02/08 05:23:30;;;;;;;9.35;4.65;;;;;;;0.06;40.09;103439.09;4990272;28;20428;-76
2023/02/08 05:25:59;;;;;;;8.85;5.50;;;;;;;0.05;39.92;103429.22;4996161;28;20053;-75
2023/02/08 05:28:27;;;;;;;9.90;5.35;;;;;;;0.06;39.93;103433.72;5001177;28;20096;-75
2023/02/08 05:30:55;;;;;;;9.65;5.97;;;;;;;0.05;39.83;103443.59;5002180;28;20050;-75
2023/02/08 05:33:24;;;;;;;10.50;5.60;;;;;;;0.05;39.88;103431.91;5007384;28;20050;-76
2023/02/08 05:35:52;;;;;;;9.70;5.55;;;;;;;0.03;39.86;103440.00;5007380;28;20042;-75
2023/02/08 05:38:20;;;;;;;8.15;5.10;;;;;;;0.02;39.85;103427.47;5007169;28;20042;-75
2023/02/08 05:40:47;;;;;;;9.00;5.15;;;;;;;0.02;39.64;103443.63;5004302;28;20055;-75
2023/02/08 05:43:15;;;;;;;8.50;5.55;;;;;;;0.01;39.80;103436.44;4989935;28;20064;-75
2023/02/08 05:45:43;;;;;;;10.07;5.90;;;;;;;-0.00;39.69;103436.44;5001878;28;20069;-76
2023/02/08 05:48:11;;;;;;;9.80;5.97;;;;;;;-0.03;40.05;103434.63;4989988;28;20042;-76
2023/02/08 05:50:40;;;;;;;8.93;5.63;;;;;;;-0.04;39.75;103440.91;4988820;28;20039;-75
2023/02/08 05:53:09;;;;;;;8.75;5.70;;;;;;;-0.06;39.97;103434.66;4994790;28;20039;-76
2023/02/08 05:55:37;;;;;;;9.70;5.80;;;;;;;-0.11;39.57;103437.34;4998074;28;20051;-76
2023/02/08 05:58:05;;;;;;;11.38;5.95;;;;;;;-0.14;39.72;103434.66;4999018;28;20046;-76
2023/02/08 06:00:33;;;;;;;11.15;5.70;;;;;;;-0.16;39.73;103439.16;4998938;28;20104;-76
2023/02/08 06:03:00;;;;;;;9.63;5.93;;;;;;;-0.18;40.04;103435.56;4997477;28;20097;-75
2023/02/08 06:05:28;;;;;;;10.07;5.60;;;;;;;-0.20;39.78;103442.75;5007765;28;20077;-75
2023/02/08 06:07:57;;;;;;;10.18;6.18;;;;;;;-0.19;39.84;103435.56;5011203;28;20050;-76
2023/02/08 06:10:25;;;;;;;10.88;5.55;;;;;;;-0.20;40.00;103433.78;5021025;28;20041;-75
2023/02/08 06:12:53;;;;;;;10.02;5.75;;;;;;;-0.21;40.00;103438.25;5030150;28;20684;-75
2023/02/08 06:15:21;;;;;;;9.10;5.60;;;;;;;-0.21;39.86;103431.97;4997199;28;20054;-76
2023/02/08 06:17:49;;;;;;;9.90;5.63;;;;;;;-0.21;39.93;103440.94;5001194;28;20097;-75
2023/02/08 06:20:17;;;;;;;9.70;5.95;;;;;;;-0.21;40.04;103445.44;5001316;28;20042;-75
2023/02/08 06:22:45;;;;;;;11.60;6.72;;;;;;;-0.21;40.15;103450.81;5008405;28;20536;-75
2023/02/08 06:25:14;;;;;;;11.02;7.25;;;;;;;-0.21;40.03;103446.31;5010810;28;20467;-76
2023/02/08 06:27:42;;;;;;;12.00;7.00;;;;;;;-0.22;39.81;103449.91;4999960;28;20097;-75
2023/02/08 06:30:11;;;;;;;11.50;7.57;;;;;;;-0.22;40.16;103447.22;5002902;28;20050;-75
2023/02/08 06:32:39;;;;;;;12.30;6.70;;;;;;;-0.22;39.92;103452.59;5025404;28;20067;-76
2023/02/08 06:35:07;;;;;;;11.30;7.25;;;;;;;-0.24;39.94;103440.97;5011051;28;20069;-75
2023/02/08 06:37:36;;;;;;;12.25;6.50;;;;;;;-0.25;39.94;103447.25;5007390;28;20068;-75
2023/02/08 06:40:04;;;;;;;11.35;6.43;;;;;;;-0.25;40.21;103443.66;5000521;28;20045;-76
2023/02/08 06:42:33;;;;;;;11.40;6.22;;;;;;;-0.26;40.18;103444.56;4992045;28;20069;-76
2023/02/08 06:45:01;;;;;;;11.30;6.28;;;;;;;-0.27;40.37;103442.75;5005154;28;20104;-76
2023/02/08 06:47:29;;;;;;;10.48;6.97;;;;;;;-0.28;40.28;103447.25;5009998;28;20049;-76
2023/02/08 06:49:57;;;;;;;11.57;6.57;;;;;;;-0.28;40.12;103441.84;4997081;28;20109;-76
2023/02/08 06:52:24;;;;;;;11.80;6.65;;;;;;;-0.29;40.16;103437.38;5002943;28;20048;-76
2023/02/08 06:54:52;;;;;;;10.77;6.40;;;;;;;-0.29;39.98;103441.84;5021828;28;20717;-76
2023/02/08 06:57:20;;;;;;;9.40;5.82;;;;;;;-0.31;40.28;103444.56;5024704;28;20054;-76
2023/02/08 06:59:49;;;;;;;9.75;5.78;;;;;;;-0.31;40.16;103432.91;5009105;28;20579;-76
2023/02/08 07:02:19;;;;;;;11.45;6.25;;;;;;;-0.33;40.14;103432.00;5017422;28;20521;-76
2023/02/08 07:04:47;;;;;;;10.85;6.53;;;;;;;-0.36;40.18;103430.22;5009731;28;20129;-76
2023/02/08 07:07:16;;;;;;;11.60;6.50;;;;;;;-0.36;40.29;103432.00;5014980;28;20544;-76
2023/02/08 07:09:45;;;;;;;12.60;6.18;;;;;;;-0.38;40.30;103432.00;5005245;28;20290;-76
2023/02/08 07:12:13;;;;;;;11.48;6.38;;;;;;;-0.41;40.54;103432.91;5022322;28;20045;-76
2023/02/08 07:14:42;;;;;;;10.32;6.20;;;;;;;-0.41;40.37;103432.03;5007096;28;20096;-76
2023/02/08 07:17:12;;;;;;;12.15;6.00;;;;;;;-0.41;39.99;103434.72;5007655;28;20390;-76
2023/02/08 07:19:40;;;;;;;12.50;6.35;;;;;;;-0.44;40.42;103432.91;5010024;28;20428;-77
2023/02/08 07:22:08;;;;;;;11.13;6.60;;;;;;;-0.44;40.38;103435.59;5023131;28;20049;-76
2023/02/08 07:24:37;;;;;;;12.65;6.90;;;;;;;-0.44;40.30;103437.38;5008545;28;20045;-76
2023/02/08 07:27:06;;;;;;;13.70;7.40;;;;;;;-0.44;40.52;103435.59;5001742;28;20493;-76
2023/02/08 07:29:34;;;;;;;11.85;6.85;;;;;;;-0.42;40.44;103430.22;4995062;28;20042;-76
2023/02/08 07:32:04;;;;;;;11.85;7.00;;;;;;;-0.38;40.36;103425.72;5007234;28;20130;-76
2023/02/08 07:34:36;;;;;;;10.85;6.55;;;;;;;-0.35;40.58;103423.03;5008998;28;20049;-76
2023/02/08 07:37:04;;;;;;;14.52;6.78;;;;;;;-0.33;40.53;103418.56;4996252;28;20493;-76
2023/02/08 07:39:32;;;;;;;12.93;7.10;;;;;;;-0.32;40.36;103418.56;4998856;28;20050;-76
2023/02/08 07:42:00;;;;;;;12.57;7.38;;;;;;;-0.30;40.19;103411.34;5007598;28;20076;-76
2023/02/08 07:44:33;;;;;;;10.93;6.45;;;;;;;-0.28;40.38;103406.88;5028873;28;20041;-76
2023/02/08 07:47:01;;;;;;;11.85;7.53;;;;;;;-0.26;40.19;103415.84;5014504;28;20117;-76
2023/02/08 07:49:29;;;;;;;11.60;7.00;;;;;;;-0.23;40.05;103413.16;4999083;28;20500;-76
2023/02/08 07:51:59;;;;;;;11.43;5.97;;;;;;;-0.21;39.88;103410.44;5010917;28;20049;-76
2023/02/08 07:54:27;;;;;;;9.88;5.57;;;;;;;-0.20;39.98;103415.81;5012018;28;20356;-76
2023/02/08 07:56:55;;;;;;;9.52;5.97;;;;;;;-0.18;40.05;103416.72;5008615;28;20054;-76
2023/02/08 07:59:22;;;;;;;7.88;5.25;;;;;;;-0.16;39.80;103417.63;4990252;28;20046;-76
2023/02/08 08:01:50;;;;;;;9.77;5.88;;;;;;;-0.15;39.92;103414.03;5022702;28;20096;-77
2023/02/08 08:04:20;;;;;;;11.30;6.13;;;;;;;-0.14;39.82;103412.22;5010588;28;20532;-76
2023/02/08 08:06:50;;;;;;;11.32;6.25;;;;;;;-0.13;40.09;103411.31;5009677;28;20050;-76
2023/02/08 08:09:19;;;;;;;11.57;6.30;;;;;;;-0.11;39.72;103417.59;5011019;28;20424;-76
2023/02/08 08:11:47;;;;;;;10.85;6.00;;;;;;;-0.11;39.81;103415.81;5016552;28;20046;-76
2023/02/08 08:14:15;;;;;;;11.77;6.60;;;;;;;-0.10;40.01;103420.28;5014404;28;20092;-76
2023/02/08 08:16:42;;;;;;;10.50;6.28;;;;;;;-0.07;39.98;103422.09;5002308;28;20050;-76
2023/02/08 08:19:10;;;;;;;9.63;5.78;;;;;;;-0.06;39.90;103423.91;4991809;28;20046;-76
2023/02/08 08:21:38;;;;;;;10.80;5.85;;;;;;;-0.05;39.98;103426.56;5011127;28;20046;-76
2023/02/08 08:24:06;;;;;;;11.13;5.95;;;;;;;-0.03;39.81;103427.44;5007607;28;20052;-76
2023/02/08 08:26:35;;;;;;;12.90;6.38;;;;;;;0.00;40.04;103431.94;4994062;28;20085;-76
2023/02/08 08:29:03;;;;;;;8.85;5.57;;;;;;;0.02;39.93;103426.56;5002921;28;20052;-76
2023/02/08 08:31:31;;;;;;;9.68;6.03;;;;;;;0.05;39.76;103429.22;5000929;28;20046;-77
2023/02/08 08:33:59;;;;;;;9.70;5.82;;;;;;;0.07;39.81;103428.34;5021033;28;20522;-75
2023/02/08 08:36:27;;;;;;;10.15;6.50;;;;;;;0.11;39.79;103426.50;5000427;28;20046;-75
2023/02/08 08:38:55;;;;;;;12.50;6.47;;;;;;;0.13;39.67;103416.63;5004329;28;20065;-75
2023/02/08 08:41:25;;;;;;;11.52;6.78;;;;;;;0.14;39.96;103419.31;5008947;28;20567;-75
2023/02/08 08:43:55;;;;;;;10.50;6.38;;;;;;;0.19;39.83;103422.03;5027528;22;20285;-72
2023/02/08 08:46:23;;;;;;;10.40;6.28;;;;;;;0.21;39.87;103409.41;4924985;29;20081;-70
2023/02/08 08:48:51;;;;;;;11.02;6.15;;;;;;;0.24;39.96;103409.44;4926248;28;20054;-70
2023/02/08 08:51:19;;;;;;;10.73;5.90;;;;;;;0.28;39.96;103409.38;4918066;29;20432;-70
2023/02/08 08:53:47;;;;;;;8.95;5.45;;;;;;;0.32;39.93;103403.09;4943435;28;20072;-71
2023/02/08 08:56:15;;;;;;;8.48;5.55;;;;;;;0.36;39.60;103402.16;4908979;29;20059;-72
2023/02/08 08:58:43;;;;;;;8.68;5.65;;;;;;;0.42;39.87;103403.06;4908703;29;20079;-70
2023/02/08 09:01:13;;;;;;;8.88;5.28;;;;;;;0.49;39.47;103396.75;4908551;29;20058;-70
2023/02/08 09:03:41;;;;;;;9.68;5.90;;;;;;;0.55;39.85;103400.28;4910266;29;20512;-72
2023/02/08 09:06:08;;;;;;;8.68;5.18;;;;;;;0.64;39.76;103400.25;4908333;29;20044;-71
2023/02/08 09:08:36;;;;;;;8.98;4.60;;;;;;;0.71;39.63;103399.28;4911730;28;20525;-71
2023/02/08 09:11:06;;;;;;;8.95;4.85;;;;;;;0.83;39.84;103401.03;4921823;28;20509;-71
2023/02/08 09:13:35;;;;;;;7.32;4.72;;;;;;;0.93;39.52;103401.91;4908926;29;20048;-71
2023/02/08 09:16:05;;;;;;;8.02;4.72;;;;;;;1.04;39.48;103410.78;4909106;29;20102;-72
2023/02/08 09:18:36;;;;;;;7.35;4.82;;;;;;;1.15;39.39;103403.53;4908392;29;20052;-71
2023/02/08 09:21:06;;;;;;;9.52;4.97;;;;;;;1.30;39.43;103399.81;4908350;29;20063;-72
2023/02/08 09:23:34;;;;;;;8.68;5.50;;;;;;;1.41;39.54;103403.31;4906982;28;20087;-72
2023/02/08 09:26:02;;;;;;;8.68;5.28;;;;;;;1.55;39.26;103405.88;4892470;29;20052;-71
2023/02/08 09:28:30;;;;;;;7.43;4.78;;;;;;;1.67;39.07;103400.38;4902888;29;20465;-72
2023/02/08 09:31:00;;;;;;;9.75;6.03;;;;;;;1.77;38.82;103408.34;4910975;28;20059;-71
2023/02/08 09:33:28;;;;;;;8.95;5.85;;;;;;;1.90;38.88;103400.13;4911486;28;20119;-71
2023/02/08 09:35:57;;;;;;;9.55;5.80;;;;;;;2.00;38.22;103397.28;4910910;29;20047;-71
2023/02/08 09:38:25;;;;;;;9.02;5.93;;;;;;;2.09;38.43;103391.78;4909965;28;20115;-71
2023/02/08 09:41:02;;;;;;;6.78;4.68;;;;;;;2.22;37.02;103392.53;4910646;28;20049;-71
2023/02/08 09:43:43;;;;;;;8.18;4.95;;;;;;;2.33;37.02;103392.41;4911748;29;20056;-72
2023/02/08 09:46:16;;;;;;;8.02;4.97;;;;;;;2.43;37.79;103384.13;4905201;29;20472;-71
2023/02/08 09:48:45;;;;;;;8.77;4.90;;;;;;;2.54;38.27;103387.59;4910637;28;20067;-71
2023/02/08 09:51:25;;;;;;;9.00;5.22;;;;;;;2.68;36.91;103381.09;4905914;29;20052;-71
2023/02/08 09:53:58;;;;;;;8.52;5.10;;;;;;;2.79;37.77;103381.84;4911070;28;20421;-71
2023/02/08 09:56:30;;;;;;;8.00;5.22;;;;;;;2.91;37.78;103389.75;4911329;28;20047;-71
2023/02/08 09:59:00;;;;;;;7.65;4.82;;;;;;;3.05;37.93;103389.56;4922798;28;20503;-71
2023/02/08 10:01:31;;;;;;;8.27;4.80;;;;;;;3.17;37.35;103389.34;4912014;29;20044;-71
2023/02/08 10:04:05;;;;;;;7.55;4.63;;;;;;;3.29;37.01;103394.56;4943874;28;20129;-70
2023/02/08 10:06:35;;;;;;;8.13;4.90;;;;;;;3.43;37.54;103402.47;4922617;28;20527;-72
2023/02/08 10:09:08;;;;;;;6.85;4.57;;;;;;;3.54;36.89;103397.78;4910440;28;20044;-72
2023/02/08 10:11:47;;;;;;;7.32;4.70;;;;;;;3.64;35.88;103384.06;4914525;28;20079;-71
2023/02/08 10:14:30;;;;;;;7.65;4.38;;;;;;;3.80;35.35;103391.88;4916305;28;20048;-72
2023/02/08 10:17:09;;;;;;;7.43;4.13;;;;;;;3.89;36.13;103389.00;4908387;29;20123;-72
2023/02/08 10:19:53;;;;;;;6.05;4.15;;;;;;;4.04;35.01;103384.16;4911449;29;20442;-73
2023/02/08 10:22:33;;;;;;;7.43;4.45;;;;;;;4.16;34.91;103393.84;4925601;28;20056;-72
2023/02/08 10:25:16;;;;;;;5.53;3.83;;;;;;;4.29;34.55;103392.69;4902277;28;20051;-72
2023/02/08 10:28:00;;;;;;;8.15;4.47;;;;;;;4.38;34.35;103392.50;4912707;28;20048;-72
2023/02/08 10:30:37;;;;;;;6.95;3.90;;;;;;;4.49;35.12;103394.94;4906256;28;20075;-72
2023/02/08 10:33:12;;;;;;;7.07;4.35;;;;;;;4.59;35.68;103391.13;4911349;29;20460;-72
2023/02/08 10:35:45;;;;;;;6.85;4.07;;;;;;;4.69;34.81;103395.41;4897064;29;20122;-72
2023/02/08 10:38:26;;;;;;;6.05;3.65;;;;;;;4.77;33.83;103401.56;4909892;28;20040;-72
2023/02/08 10:41:18;;;;;;;6.68;3.80;;;;;;;4.88;34.43;103398.59;4908308;28;20056;-73
2023/02/08 10:43:51;;;;;;;6.60;4.13;;;;;;;4.96;34.70;103393.00;4910725;29;20052;-72
2023/02/08 10:46:22;;;;;;;;;;;;;;;4.78;34.52;103384.34;4906778;29;20501;-72
2023/02/08 10:49:03;;;;;;;5.65;3.58;;;;;;;5.09;33.98;103389.03;4910369;29;19959;-72
2023/02/08 10:51:31;;;;;;;6.50;3.80;;;;;;;5.18;35.11;103392.47;4911020;29;20408;-72
2023/02/08 10:54:01;;;;;;;6.47;3.40;;;;;;;5.26;34.51;103378.69;4896984;29;20070;-72
2023/02/08 10:56:40;;;;;;;5.22;3.55;;;;;;;5.34;32.36;103376.69;4897977;29;20040;-72
2023/02/08 10:59:16;;;;;;;6.05;4.10;;;;;;;5.40;31.94;103381.03;4902574;28;20524;-72
2023/02/08 11:01:46;;;;;;;6.18;3.67;;;;;;;5.45;33.24;103384.56;4989617;28;20059;-73
2023/02/08 11:04:15;;;;;;;6.55;3.70;;;;;;;5.49;33.61;103383.53;4908327;28;20044;-72
2023/02/08 11:06:44;;;;;;;6.55;4.07;;;;;;;5.53;33.62;103377.09;4910435;28;20091;-71
2023/02/08 11:09:25;;;;;;;5.30;3.67;;;;;;;5.55;29.39;103373.38;4917885;28;20500;-72
2023/02/08 11:11:54;;;;;;;6.55;4.10;;;;;;;5.55;32.70;103370.66;4911117;29;20417;-72
2023/02/08 11:14:26;;;;;;;7.60;4.15;;;;;;;5.60;31.91;103362.41;4904620;29;20055;-72
2023/02/08 11:17:25;;;;;;;6.25;4.03;;;;;;;5.61;30.32;103364.19;4910128;29;20037;-72
2023/02/08 11:19:54;;;;;;;6.70;3.92;;;;;;;5.62;32.76;103352.41;4904879;28;20455;-72
2023/02/08 11:22:24;;;;;;;5.80;3.65;;;;;;;5.66;32.35;103352.25;4916119;28;20048;-72
2023/02/08 11:24:59;;;;;;;6.47;4.07;;;;;;;5.70;31.31;103350.38;4913709;28;20051;-72
2023/02/08 11:27:32;;;;;;;5.93;3.92;;;;;;;5.76;31.60;103346.56;4908984;29;20133;-72
2023/02/08 11:30:20;;;;;;;6.65;4.05;;;;;;;5.79;30.48;103343.78;4908540;28;20599;-72
2023/02/08 11:32:51;;;;;;;5.80;3.30;;;;;;;5.84;32.76;103337.28;4911008;29;20067;-72
2023/02/08 11:35:22;;;;;;;6.20;3.45;;;;;;;5.90;32.39;103337.09;4909181;28;20428;-72
2023/02/08 11:37:52;;;;;;;7.15;3.45;;;;;;;5.96;32.43;103333.28;4911623;29;20052;-72
2023/02/08 11:40:24;;;;;;;7.13;3.85;;;;;;;6.01;31.25;103317.75;4908627;28;20418;-73
2023/02/08 11:42:52;;;;;;;6.70;3.67;;;;;;;6.03;32.46;103322.22;4936446;28;20505;-72
2023/02/08 11:45:23;;;;;;;5.65;3.30;;;;;;;6.10;31.92;103319.31;4911490;28;20064;-73
2023/02/08 11:47:51;;;;;;;4.80;3.10;;;;;;;6.16;32.45;103324.56;4910120;28;20048;-72